createdAt,value
2022-11-29T00:01:42.324Z,100.00
2022-11-29T00:04:10.593Z,100.00
2022-11-29T00:06:39.385Z,100.00
2022-11-29T00:09:11.507Z,100.00
2022-11-29T00:11:58.227Z,100.00
2022-11-29T00:14:29.491Z,100.00
2022-11-29T00:17:02.455Z,100.00
2022-11-29T00:19:31.288Z,100.00
2022-11-29T00:21:59.041Z,100.00
2022-11-29T00:24:26.865Z,100.00
2022-11-29T00:26:54.613Z,100.00
2022-11-29T00:29:22.382Z,100.00
2022-11-29T00:31:51.451Z,100.00
2022-11-29T00:34:19.310Z,100.00
2022-11-29T00:36:47.085Z,100.00
2022-11-29T00:39:16.253Z,100.00
2022-11-29T00:41:44.141Z,100.00
2022-11-29T00:44:18.342Z,100.00
2022-11-29T00:46:48.171Z,100.00
2022-11-29T00:49:17.644Z,100.00
2022-11-29T00:51:45.337Z,100.00
2022-11-29T00:54:13.017Z,100.00
2022-11-29T00:56:40.754Z,100.00
2022-11-29T00:59:08.615Z,100.00
2022-11-29T01:01:36.447Z,100.00
2022-11-29T01:04:04.703Z,100.00
2022-11-29T01:06:33.833Z,100.00
2022-11-29T01:09:01.454Z,100.00
2022-11-29T01:11:29.649Z,100.00
2022-11-29T01:13:59.812Z,100.00
2022-11-29T01:16:28.448Z,100.00
2022-11-29T01:18:56.187Z,100.00
2022-11-29T01:21:25.550Z,100.00
2022-11-29T01:23:56.385Z,100.00
2022-11-29T01:26:26.765Z,100.00
2022-11-29T01:28:56.460Z,100.00
2022-11-29T01:31:26.435Z,100.00
2022-11-29T01:33:55.384Z,100.00
2022-11-29T01:36:23.805Z,100.00
2022-11-29T01:38:51.687Z,100.00
2022-11-29T01:41:22.308Z,100.00
2022-11-29T01:43:59.687Z,100.00
2022-11-29T01:46:29.155Z,100.00
2022-11-29T01:49:01.746Z,100.00
2022-11-29T01:51:30.789Z,100.00
2022-11-29T01:53:59.261Z,100.00
2022-11-29T01:56:29.433Z,100.00
2022-11-29T01:58:57.584Z,100.00
2022-11-29T02:01:25.345Z,100.00
2022-11-29T02:03:54.381Z,100.00
2022-11-29T02:06:23.170Z,100.00
2022-11-29T02:08:50.843Z,100.00
2022-11-29T02:11:51.183Z,100.00
2022-11-29T02:14:38.138Z,100.00
2022-11-29T02:17:21.578Z,100.00
2022-11-29T02:20:19.255Z,100.00
2022-11-29T02:22:54.070Z,100.00
2022-11-29T02:25:41.153Z,100.00
2022-11-29T02:28:42.083Z,100.00
2022-11-29T02:31:39.089Z,100.00
2022-11-29T02:34:28.114Z,100.00
2022-11-29T02:37:19.521Z,100.00
2022-11-29T02:40:12.568Z,100.00
2022-11-29T02:43:18.383Z,100.00
2022-11-29T02:45:57.355Z,100.00
2022-11-29T02:48:42.306Z,100.00
2022-11-29T02:51:17.075Z,100.00
2022-11-29T02:53:52.480Z,100.00
2022-11-29T02:56:28.269Z,100.00
2022-11-29T02:59:02.496Z,100.00
2022-11-29T03:01:38.293Z,100.00
2022-11-29T03:04:15.513Z,100.00
2022-11-29T03:06:52.480Z,100.00
2022-11-29T03:09:30.152Z,100.00
2022-11-29T03:12:04.934Z,100.00
2022-11-29T03:14:45.249Z,100.00
2022-11-29T03:17:21.462Z,100.00
2022-11-29T03:20:03.681Z,100.00
2022-11-29T03:22:43.603Z,100.00
2022-11-29T03:25:18.641Z,100.00
2022-11-29T03:27:51.525Z,100.00
2022-11-29T03:30:21.651Z,100.00
2022-11-29T03:32:57.993Z,100.00
2022-11-29T03:35:31.885Z,100.00
2022-11-29T03:38:14.056Z,100.00
2022-11-29T03:40:50.677Z,100.00
2022-11-29T03:43:24.758Z,100.00
2022-11-29T03:45:59.400Z,100.00
2022-11-29T03:48:32.459Z,100.00
2022-11-29T03:51:05.440Z,100.00
2022-11-29T03:53:40.596Z,100.00
2022-11-29T03:56:26.590Z,100.00
2022-11-29T03:59:05.064Z,100.00
2022-11-29T04:02:13.847Z,100.00
2022-11-29T04:05:13.121Z,100.00
2022-11-29T04:07:50.868Z,100.00
2022-11-29T04:10:31.565Z,100.00
2022-11-29T04:13:27.400Z,100.00
2022-11-29T04:16:19.463Z,100.00
2022-11-29T04:19:32.654Z,100.00
2022-11-29T04:22:21.585Z,100.00
2022-11-29T04:25:14.557Z,100.00
2022-11-29T04:28:04.748Z,100.00
2022-11-29T04:30:43.499Z,100.00
2022-11-29T04:33:47.779Z,100.00
2022-11-29T04:36:54.589Z,100.00
2022-11-29T04:39:37.714Z,100.00
2022-11-29T04:42:25.657Z,100.00
2022-11-29T04:45:10.554Z,100.00
2022-11-29T04:47:51.158Z,100.00
2022-11-29T04:50:34.369Z,100.00
2022-11-29T04:53:25.769Z,100.00
2022-11-29T04:56:02.217Z,100.00
2022-11-29T04:58:37.069Z,100.00
2022-11-29T05:01:23.731Z,100.00
2022-11-29T05:03:58.636Z,100.00
2022-11-29T05:06:33.854Z,100.00
2022-11-29T05:09:12.621Z,100.00
2022-11-29T05:11:54.931Z,100.00
2022-11-29T05:14:36.478Z,100.00
2022-11-29T05:17:25.702Z,100.00
2022-11-29T05:20:05.406Z,100.00
2022-11-29T05:22:41.495Z,100.00
2022-11-29T05:25:32.260Z,100.00
2022-11-29T05:28:10.260Z,100.00
2022-11-29T05:30:56.892Z,100.00
2022-11-29T05:33:38.680Z,100.00
2022-11-29T05:36:14.966Z,100.00
2022-11-29T05:38:57.234Z,100.00
2022-11-29T05:41:49.131Z,100.00
2022-11-29T05:44:25.050Z,100.00
2022-11-29T05:46:57.483Z,99.85
2022-11-29T05:49:34.495Z,99.99
2022-11-29T05:52:20.257Z,100.00
2022-11-29T05:55:00.418Z,100.00
2022-11-29T05:57:37.174Z,100.00
2022-11-29T06:00:06.876Z,100.00
2022-11-29T06:02:47.407Z,100.00
2022-11-29T06:05:25.757Z,100.00
2022-11-29T06:07:59.161Z,100.00
2022-11-29T06:10:32.763Z,100.00
2022-11-29T06:13:12.410Z,100.00
2022-11-29T06:16:09.498Z,100.00
2022-11-29T06:19:05.950Z,100.00
2022-11-29T06:21:41.670Z,100.00
2022-11-29T06:24:34.444Z,100.00
2022-11-29T06:27:22.815Z,99.98
2022-11-29T06:29:57.131Z,100.00
2022-11-29T06:32:31.818Z,99.49
2022-11-29T06:35:04.710Z,99.25
2022-11-29T06:37:39.617Z,100.00
2022-11-29T06:40:14.542Z,99.41
2022-11-29T06:42:42.172Z,99.51
2022-11-29T06:45:13.695Z,99.20
2022-11-29T06:47:45.888Z,98.60
2022-11-29T06:50:32.025Z,98.44
2022-11-29T06:53:09.460Z,98.60
2022-11-29T06:55:48.675Z,98.63
2022-11-29T06:58:36.227Z,98.50
2022-11-29T07:01:11.849Z,97.83
2022-11-29T07:03:53.312Z,97.86
2022-11-29T07:06:23.763Z,98.30
2022-11-29T07:09:00.566Z,98.61
2022-11-29T07:11:29.272Z,98.66
2022-11-29T07:13:57.412Z,99.21
2022-11-29T07:16:29.413Z,99.78
2022-11-29T07:19:07.010Z,99.77
2022-11-29T07:21:47.050Z,99.80
2022-11-29T07:24:32.051Z,100.00
2022-11-29T07:27:06.170Z,100.00
2022-11-29T07:29:42.906Z,99.57
2022-11-29T07:32:18.084Z,99.98
2022-11-29T07:34:55.621Z,100.00
2022-11-29T07:37:32.698Z,100.00
2022-11-29T07:40:07.508Z,100.00
2022-11-29T07:42:43.113Z,100.00
2022-11-29T07:45:21.761Z,100.00
2022-11-29T07:47:50.220Z,100.00
2022-11-29T07:50:18.335Z,99.99
2022-11-29T07:52:46.197Z,99.59
2022-11-29T07:55:18.990Z,99.14
2022-11-29T07:57:47.276Z,99.17
2022-11-29T08:00:16.393Z,99.30
2022-11-29T08:02:44.580Z,98.92
2022-11-29T08:05:13.173Z,99.04
2022-11-29T08:07:42.842Z,99.13
2022-11-29T08:10:14.239Z,99.16
2022-11-29T08:12:46.024Z,98.98
2022-11-29T08:15:14.045Z,98.99
2022-11-29T08:17:41.737Z,98.83
2022-11-29T08:20:10.495Z,99.41
2022-11-29T08:22:38.751Z,99.06
2022-11-29T08:25:08.088Z,99.35
2022-11-29T08:27:36.504Z,98.85
2022-11-29T08:30:06.490Z,99.62
2022-11-29T08:32:35.359Z,99.50
2022-11-29T08:35:03.203Z,99.51
2022-11-29T08:37:30.912Z,99.47
2022-11-29T08:39:58.929Z,98.42
2022-11-29T08:42:26.650Z,98.39
2022-11-29T08:44:54.358Z,98.20
2022-11-29T08:47:38.304Z,98.19
2022-11-29T08:50:10.114Z,98.30
2022-11-29T08:52:56.352Z,98.26
2022-11-29T08:55:26.284Z,97.81
2022-11-29T08:57:55.963Z,98.44
2022-11-29T09:00:23.724Z,98.02
2022-11-29T09:02:53.030Z,98.39
2022-11-29T09:05:20.772Z,98.80
2022-11-29T09:07:48.805Z,98.97
2022-11-29T09:10:16.787Z,98.39
2022-11-29T09:12:44.853Z,98.85
2022-11-29T09:15:13.157Z,98.64
2022-11-29T09:17:41.018Z,98.78
2022-11-29T09:20:11.109Z,98.38
2022-11-29T09:22:38.840Z,98.33
2022-11-29T09:25:07.624Z,98.89
2022-11-29T09:27:35.355Z,98.40
2022-11-29T09:30:03.156Z,98.75
2022-11-29T09:32:31.529Z,98.24
2022-11-29T09:34:59.328Z,98.84
2022-11-29T09:37:28.731Z,98.75
2022-11-29T09:39:56.494Z,99.22
2022-11-29T09:42:42.904Z,99.35
2022-11-29T09:45:12.507Z,99.41
2022-11-29T09:47:58.070Z,99.20
2022-11-29T09:50:33.972Z,99.14
2022-11-29T09:53:23.913Z,98.33
2022-11-29T09:56:06.232Z,98.07
2022-11-29T09:58:43.716Z,98.51
2022-11-29T10:01:18.309Z,98.41
2022-11-29T10:03:48.154Z,97.82
2022-11-29T10:06:23.594Z,97.84
2022-11-29T10:08:57.803Z,97.76
2022-11-29T10:11:32.233Z,98.21
2022-11-29T10:14:09.199Z,98.56
2022-11-29T10:16:44.436Z,97.92
2022-11-29T10:19:20.625Z,97.91
2022-11-29T10:21:59.168Z,97.82
2022-11-29T10:24:30.447Z,97.88
2022-11-29T10:26:58.318Z,97.68
2022-11-29T10:29:26.355Z,97.20
2022-11-29T10:31:56.765Z,97.46
2022-11-29T10:34:26.611Z,97.92
2022-11-29T10:36:58.668Z,97.12
2022-11-29T10:39:37.208Z,96.93
2022-11-29T10:42:27.549Z,97.07
2022-11-29T10:44:55.471Z,97.27
2022-11-29T10:47:23.257Z,96.91
2022-11-29T10:49:51.055Z,97.37
2022-11-29T10:52:21.336Z,96.56
2022-11-29T10:54:53.908Z,96.71
2022-11-29T10:57:23.879Z,97.00
2022-11-29T11:00:03.850Z,97.37
2022-11-29T11:02:32.798Z,97.63
2022-11-29T11:05:01.881Z,97.13
2022-11-29T11:07:33.189Z,97.57
2022-11-29T11:10:04.261Z,97.15
2022-11-29T11:12:33.872Z,96.92
2022-11-29T11:15:16.757Z,96.58
2022-11-29T11:17:58.261Z,96.92
2022-11-29T11:20:29.085Z,96.98
2022-11-29T11:23:00.328Z,96.26
2022-11-29T11:25:31.759Z,96.58
2022-11-29T11:28:11.937Z,97.32
2022-11-29T11:30:39.753Z,97.44
2022-11-29T11:33:08.518Z,96.90
2022-11-29T11:35:37.237Z,97.21
2022-11-29T11:38:05.027Z,97.53
2022-11-29T11:40:34.610Z,97.97
2022-11-29T11:43:03.621Z,97.87
2022-11-29T11:45:34.443Z,97.64
2022-11-29T11:48:05.249Z,97.74
2022-11-29T11:50:35.965Z,98.15
2022-11-29T11:53:06.684Z,98.56
2022-11-29T11:55:40.517Z,98.19
2022-11-29T11:58:18.774Z,98.48
2022-11-29T12:01:05.938Z,98.68
2022-11-29T12:03:45.059Z,98.48
2022-11-29T12:06:28.744Z,98.61
2022-11-29T12:09:03.533Z,98.35
2022-11-29T12:11:39.050Z,98.41
2022-11-29T12:14:09.020Z,98.73
2022-11-29T12:16:40.224Z,98.18
2022-11-29T12:19:16.128Z,98.44
2022-11-29T12:21:48.541Z,98.62
2022-11-29T12:24:23.128Z,98.35
2022-11-29T12:26:57.683Z,98.09
2022-11-29T12:29:28.878Z,98.01
2022-11-29T12:32:15.416Z,97.66
2022-11-29T12:34:57.119Z,98.14
2022-11-29T12:37:33.475Z,98.02
2022-11-29T12:40:07.206Z,97.97
2022-11-29T12:42:47.274Z,97.90
2022-11-29T12:45:46.629Z,98.04
2022-11-29T12:48:29.644Z,97.94
2022-11-29T12:51:08.225Z,97.72
2022-11-29T12:53:52.270Z,98.68
2022-11-29T12:56:26.908Z,99.20
2022-11-29T12:59:13.465Z,99.13
2022-11-29T13:01:58.856Z,99.13
2022-11-29T13:04:36.616Z,98.71
2022-11-29T13:07:11.501Z,99.47
2022-11-29T13:10:18.324Z,98.94
2022-11-29T13:12:51.375Z,99.34
2022-11-29T13:15:22.586Z,99.10
2022-11-29T13:18:01.681Z,98.57
2022-11-29T13:20:39.899Z,98.06
2022-11-29T13:23:39.050Z,98.34
2022-11-29T13:26:12.522Z,97.79
2022-11-29T13:28:42.970Z,97.76
2022-11-29T13:31:16.782Z,97.94
2022-11-29T13:33:54.488Z,97.42
2022-11-29T13:36:29.915Z,97.96
2022-11-29T13:39:08.788Z,97.90
2022-11-29T13:41:42.787Z,98.64
2022-11-29T13:44:20.377Z,98.02
2022-11-29T13:46:58.866Z,98.06
2022-11-29T13:49:52.018Z,98.17
2022-11-29T13:52:32.164Z,98.65
2022-11-29T13:55:28.602Z,98.51
2022-11-29T13:58:18.945Z,98.48
2022-11-29T14:00:52.327Z,98.80
2022-11-29T14:03:29.826Z,98.41
2022-11-29T14:06:10.766Z,98.21
2022-11-29T14:09:17.324Z,97.66
2022-11-29T14:11:33.069Z,97.54
2022-11-29T14:14:05.756Z,97.23
2022-11-29T14:16:38.578Z,97.72
2022-11-29T14:19:32.860Z,97.35
2022-11-29T14:22:22.862Z,97.68
2022-11-29T14:25:08.184Z,97.54
2022-11-29T14:27:59.331Z,96.76
2022-11-29T14:30:52.544Z,97.12
2022-11-29T14:33:34.977Z,96.33
2022-11-29T14:36:26.471Z,96.48
2022-11-29T14:39:06.056Z,96.41
2022-11-29T14:41:49.749Z,96.18
2022-11-29T14:44:20.079Z,96.68
2022-11-29T14:46:48.904Z,96.73
2022-11-29T14:49:23.905Z,96.27
2022-11-29T14:52:20.086Z,96.61
2022-11-29T14:55:01.299Z,96.05
2022-11-29T14:57:54.424Z,96.93
2022-11-29T15:00:23.590Z,97.16
2022-11-29T15:02:54.220Z,96.64
2022-11-29T15:05:25.583Z,96.67
2022-11-29T15:08:07.553Z,96.89
2022-11-29T15:10:40.075Z,97.10
2022-11-29T15:13:13.031Z,96.49
2022-11-29T15:16:09.342Z,96.39
2022-11-29T15:19:01.827Z,96.36
2022-11-29T15:21:38.258Z,95.47
2022-11-29T15:24:13.578Z,96.10
2022-11-29T15:26:55.992Z,96.19
2022-11-29T15:29:24.045Z,96.68
2022-11-29T15:31:54.868Z,96.66
2022-11-29T15:34:43.091Z,96.66
2022-11-29T15:37:21.977Z,96.84
2022-11-29T15:40:02.487Z,96.56
2022-11-29T15:42:40.294Z,96.81
2022-11-29T15:45:25.670Z,96.05
2022-11-29T15:47:53.747Z,96.34
2022-11-29T15:50:26.735Z,96.09
2022-11-29T15:52:58.911Z,96.92
2022-11-29T15:55:29.052Z,96.65
2022-11-29T15:58:01.592Z,96.39
2022-11-29T16:00:33.865Z,95.91
2022-11-29T16:03:02.964Z,96.43
2022-11-29T16:05:33.855Z,95.65
2022-11-29T16:08:05.348Z,95.96
2022-11-29T16:10:38.347Z,96.03
2022-11-29T16:13:09.082Z,96.32
2022-11-29T16:15:38.491Z,96.54
2022-11-29T16:18:11.814Z,96.68
2022-11-29T16:20:40.063Z,96.02
2022-11-29T16:23:12.665Z,96.34
2022-11-29T16:25:55.128Z,96.33
2022-11-29T16:28:23.397Z,95.82
2022-11-29T16:30:51.139Z,96.20
2022-11-29T16:33:23.229Z,96.36
2022-11-29T16:35:52.526Z,96.10
2022-11-29T16:38:23.064Z,96.61
2022-11-29T16:41:07.542Z,96.40
2022-11-29T16:43:53.733Z,96.63
2022-11-29T16:46:31.137Z,96.61
2022-11-29T16:49:02.500Z,96.65
2022-11-29T16:51:37.625Z,96.79
2022-11-29T16:54:22.853Z,96.59
2022-11-29T16:56:53.381Z,96.35
2022-11-29T16:59:26.790Z,96.75
2022-11-29T17:01:55.845Z,96.92
2022-11-29T17:04:24.819Z,96.77
2022-11-29T17:06:53.385Z,96.73
2022-11-29T17:09:25.144Z,97.03
2022-11-29T17:11:54.799Z,96.67
2022-11-29T17:14:22.532Z,97.11
2022-11-29T17:16:50.518Z,97.22
2022-11-29T17:19:19.663Z,96.97
2022-11-29T17:21:47.628Z,96.87
2022-11-29T17:24:17.105Z,96.69
2022-11-29T17:26:45.754Z,96.87
2022-11-29T17:29:16.216Z,96.52
2022-11-29T17:31:44.872Z,96.83
2022-11-29T17:34:12.929Z,96.58
2022-11-29T17:36:40.779Z,96.80
2022-11-29T17:39:09.035Z,96.77
2022-11-29T17:41:36.931Z,97.23
2022-11-29T17:44:05.104Z,97.21
2022-11-29T17:46:35.984Z,97.06
2022-11-29T17:49:05.941Z,97.48
2022-11-29T17:54:22.728Z,97.64
2022-11-29T17:56:50.457Z,97.71
2022-11-29T17:59:18.424Z,97.40
2022-11-29T18:01:47.970Z,97.30
2022-11-29T18:04:16.062Z,97.27
2022-11-29T18:06:43.796Z,96.80
2022-11-29T18:09:12.912Z,97.07
2022-11-29T18:11:47.712Z,97.23
2022-11-29T18:14:18.339Z,97.46
2022-11-29T18:16:47.455Z,97.45
2022-11-29T18:19:17.205Z,97.39
2022-11-29T18:21:45.052Z,97.58
2022-11-29T18:24:13.147Z,97.64
2022-11-29T18:26:41.534Z,98.23
2022-11-29T18:29:10.036Z,97.90
2022-11-29T18:31:40.287Z,97.74
2022-11-29T18:34:11.054Z,97.63
2022-11-29T18:36:42.996Z,97.59
2022-11-29T18:39:13.943Z,97.71
2022-11-29T18:41:43.048Z,97.82
2022-11-29T18:44:12.926Z,98.05
2022-11-29T18:46:43.111Z,98.23
2022-11-29T18:49:13.982Z,98.38
2022-11-29T18:51:44.563Z,98.06
2022-11-29T18:54:12.882Z,98.13
2022-11-29T18:56:40.735Z,97.87
2022-11-29T18:59:10.930Z,98.73
2022-11-29T19:01:42.533Z,98.40
2022-11-29T19:04:13.382Z,98.12
2022-11-29T19:06:42.291Z,98.63
2022-11-29T19:09:13.901Z,99.02
2022-11-29T19:11:41.992Z,99.03
2022-11-29T19:14:12.589Z,98.80
2022-11-29T19:16:43.178Z,98.99
2022-11-29T19:19:12.406Z,98.75
2022-11-29T19:21:40.753Z,99.04
2022-11-29T19:24:13.749Z,99.13
2022-11-29T19:26:44.213Z,99.34
2022-11-29T19:29:12.444Z,99.28
2022-11-29T19:31:40.336Z,99.28
2022-11-29T19:34:08.010Z,99.37
2022-11-29T19:36:42.484Z,99.34
2022-11-29T19:39:11.150Z,99.04
2022-11-29T19:41:38.887Z,98.70
2022-11-29T19:44:09.278Z,99.13
2022-11-29T19:46:38.832Z,98.74
2022-11-29T19:49:08.791Z,98.61
2022-11-29T19:51:38.100Z,99.04
2022-11-29T19:54:08.193Z,99.17
2022-11-29T19:56:36.588Z,99.23
2022-11-29T19:59:04.295Z,99.59
2022-11-29T20:01:40.156Z,99.10
2022-11-29T20:04:09.998Z,99.03
2022-11-29T20:06:39.166Z,98.96
2022-11-29T20:09:07.541Z,99.17
2022-11-29T20:11:35.694Z,99.06
2022-11-29T20:14:05.234Z,99.53
2022-11-29T20:16:33.411Z,99.14
2022-11-29T20:19:01.747Z,99.59
2022-11-29T20:21:31.298Z,99.67
2022-11-29T20:24:04.050Z,100.00
2022-11-29T20:26:34.091Z,99.74
2022-11-29T20:29:02.806Z,99.95
2022-11-29T20:31:31.298Z,99.92
2022-11-29T20:33:59.729Z,99.99
2022-11-29T20:36:44.013Z,99.95
2022-11-29T20:39:31.660Z,100.00
2022-11-29T20:42:19.612Z,99.60
2022-11-29T20:44:53.136Z,100.00
2022-11-29T20:47:22.819Z,100.00
2022-11-29T20:49:50.719Z,100.00
2022-11-29T20:52:31.228Z,100.00
2022-11-29T20:55:00.378Z,100.00
2022-11-29T20:57:28.040Z,100.00
2022-11-29T20:59:55.744Z,100.00
2022-11-29T21:02:24.712Z,100.00
2022-11-29T21:04:54.070Z,100.00
2022-11-29T21:07:21.968Z,100.00
2022-11-29T21:09:49.801Z,100.00
2022-11-29T21:12:19.540Z,100.00
2022-11-29T21:14:48.066Z,100.00
2022-11-29T21:17:16.497Z,100.00
2022-11-29T21:19:44.765Z,100.00
2022-11-29T21:22:19.635Z,100.00
2022-11-29T21:24:54.727Z,100.00
2022-11-29T21:27:29.770Z,100.00
2022-11-29T21:29:58.111Z,100.00
2022-11-29T21:32:28.117Z,100.00
2022-11-29T21:34:55.972Z,100.00
2022-11-29T21:37:27.475Z,100.00
2022-11-29T21:39:56.103Z,100.00
2022-11-29T21:42:25.204Z,100.00
2022-11-29T21:44:52.923Z,100.00
2022-11-29T21:47:20.718Z,100.00
2022-11-29T21:49:48.470Z,100.00
2022-11-29T21:52:22.017Z,100.00
2022-11-29T21:54:50.756Z,100.00
2022-11-29T21:57:18.507Z,100.00
2022-11-29T21:59:47.599Z,100.00
2022-11-29T22:02:15.403Z,100.00
2022-11-29T22:04:43.387Z,100.00
2022-11-29T22:07:11.217Z,100.00
2022-11-29T22:09:39.089Z,100.00
2022-11-29T22:12:31.786Z,100.00
2022-11-29T22:14:56.194Z,100.00
2022-11-29T22:17:23.872Z,100.00
2022-11-29T22:19:51.597Z,100.00
2022-11-29T22:22:19.251Z,100.00
2022-11-29T22:24:47.270Z,100.00
2022-11-29T22:27:17.652Z,100.00
2022-11-29T22:29:45.400Z,100.00
2022-11-29T22:32:14.644Z,100.00
2022-11-29T22:34:42.357Z,100.00
2022-11-29T22:37:10.254Z,100.00
2022-11-29T22:39:37.878Z,100.00
2022-11-29T22:42:05.694Z,100.00
2022-11-29T22:44:33.333Z,100.00
2022-11-29T22:47:01.061Z,100.00
2022-11-29T22:49:30.170Z,100.00
2022-11-29T22:51:57.827Z,100.00
2022-11-29T22:54:25.606Z,100.00
2022-11-29T22:56:53.394Z,100.00
2022-11-29T22:59:21.101Z,100.00
2022-11-29T23:01:48.821Z,100.00
2022-11-29T23:04:16.539Z,100.00
2022-11-29T23:06:46.900Z,100.00
2022-11-29T23:09:16.710Z,100.00
2022-11-29T23:11:46.051Z,100.00
2022-11-29T23:14:14.097Z,100.00
2022-11-29T23:16:41.979Z,100.00
2022-11-29T23:19:10.130Z,100.00
2022-11-29T23:21:39.377Z,100.00
2022-11-29T23:24:08.868Z,100.00
2022-11-29T23:26:39.894Z,100.00
2022-11-29T23:29:10.740Z,100.00
2022-11-29T23:31:38.934Z,100.00
2022-11-29T23:34:06.640Z,100.00
2022-11-29T23:36:34.950Z,100.00
2022-11-29T23:39:02.749Z,100.00
2022-11-29T23:41:31.834Z,100.00
2022-11-29T23:43:59.877Z,100.00
2022-11-29T23:46:27.576Z,100.00
2022-11-29T23:48:55.516Z,100.00
2022-11-29T23:51:23.239Z,100.00
2022-11-29T23:53:52.512Z,100.00
2022-11-29T23:56:20.942Z,100.00
2022-11-29T23:58:50.104Z,100.00
